createdAt,value
2022-09-07T00:00:39.870Z,17.61
2022-09-07T00:03:06.572Z,17.63
2022-09-07T00:05:33.793Z,17.67
2022-09-07T00:08:00.950Z,17.49
2022-09-07T00:10:27.820Z,17.60
2022-09-07T00:12:54.412Z,17.74
2022-09-07T00:15:20.958Z,17.65
2022-09-07T00:17:47.517Z,17.67
2022-09-07T00:20:15.065Z,17.88
2022-09-07T00:22:41.671Z,17.78
2022-09-07T00:25:08.982Z,17.72
2022-09-07T00:27:35.545Z,17.79
2022-09-07T00:30:02.097Z,17.91
2022-09-07T00:32:28.669Z,17.83
2022-09-07T00:34:55.197Z,17.77
2022-09-07T00:37:21.811Z,17.83
2022-09-07T00:39:49.468Z,17.97
2022-09-07T00:42:19.854Z,17.85
2022-09-07T00:44:58.531Z,17.60
2022-09-07T00:47:27.699Z,17.58
2022-09-07T00:50:00.033Z,17.56
2022-09-07T00:52:29.698Z,17.69
2022-09-07T00:55:01.907Z,17.53
2022-09-07T00:57:29.023Z,17.49
2022-09-07T00:59:57.553Z,17.72
2022-09-07T01:02:25.709Z,17.86
2022-09-07T01:05:04.458Z,17.63
2022-09-07T01:07:33.686Z,17.61
2022-09-07T01:10:00.962Z,17.86
2022-09-07T01:12:27.579Z,17.76
2022-09-07T01:14:55.798Z,17.58
2022-09-07T01:17:35.441Z,17.70
2022-09-07T01:20:20.612Z,17.72
2022-09-07T01:23:02.258Z,17.74
2022-09-07T01:25:40.814Z,17.63
2022-09-07T01:28:13.313Z,17.62
2022-09-07T01:30:49.620Z,17.66
2022-09-07T01:33:23.011Z,17.73
2022-09-07T01:36:01.004Z,17.93
2022-09-07T01:38:36.911Z,17.81
2022-09-07T01:41:11.439Z,17.80
2022-09-07T01:43:54.105Z,17.82
2022-09-07T01:46:52.704Z,17.62
2022-09-07T01:49:35.557Z,17.48
2022-09-07T01:52:14.564Z,17.48
2022-09-07T01:54:46.834Z,17.43
2022-09-07T01:57:19.093Z,17.49
2022-09-07T01:59:55.754Z,17.49
2022-09-07T02:02:29.745Z,17.39
2022-09-07T02:05:20.964Z,17.46
2022-09-07T02:08:00.797Z,17.41
2022-09-07T02:10:56.546Z,17.40
2022-09-07T02:13:31.280Z,17.38
2022-09-07T02:16:03.136Z,17.31
2022-09-07T02:18:34.184Z,17.38
2022-09-07T02:21:03.081Z,17.35
2022-09-07T02:23:37.083Z,17.35
2022-09-07T02:26:07.388Z,17.34
2022-09-07T02:28:36.573Z,17.25
2022-09-07T02:31:03.529Z,17.23
2022-09-07T02:33:30.610Z,17.17
2022-09-07T02:35:57.846Z,17.17
2022-09-07T02:38:25.370Z,17.00
2022-09-07T02:40:53.630Z,16.92
2022-09-07T02:43:22.204Z,16.88
2022-09-07T02:46:07.540Z,17.10
2022-09-07T02:48:42.751Z,17.01
2022-09-07T02:51:24.569Z,17.07
2022-09-07T02:54:15.775Z,17.07
2022-09-07T02:57:14.342Z,17.00
2022-09-07T03:00:09.921Z,16.83
2022-09-07T03:02:54.546Z,16.83
2022-09-07T03:05:29.139Z,16.85
2022-09-07T03:08:10.770Z,16.96
2022-09-07T03:10:39.489Z,16.96
2022-09-07T03:13:06.230Z,17.02
2022-09-07T03:15:32.908Z,17.14
2022-09-07T03:17:59.583Z,17.00
2022-09-07T03:20:26.080Z,16.92
2022-09-07T03:22:52.893Z,17.08
2022-09-07T03:25:19.837Z,17.05
2022-09-07T03:27:46.374Z,17.08
2022-09-07T03:30:13.496Z,17.06
2022-09-07T03:32:40.071Z,17.01
2022-09-07T03:35:08.194Z,17.11
2022-09-07T03:37:38.756Z,16.98
2022-09-07T03:40:07.967Z,16.89
2022-09-07T03:42:34.999Z,16.86
2022-09-07T03:45:01.767Z,16.99
2022-09-07T03:47:28.393Z,17.04
2022-09-07T03:49:54.973Z,16.96
2022-09-07T03:52:21.643Z,16.95
2022-09-07T03:54:48.188Z,16.93
2022-09-07T03:57:14.777Z,16.90
2022-09-07T03:59:41.280Z,16.90
2022-09-07T04:02:07.924Z,16.90
2022-09-07T04:04:34.553Z,16.90
2022-09-07T04:07:01.140Z,16.88
2022-09-07T04:09:27.739Z,16.95
2022-09-07T04:11:54.376Z,17.10
2022-09-07T04:14:20.973Z,17.21
2022-09-07T04:16:47.762Z,17.33
2022-09-07T04:19:14.399Z,17.53
2022-09-07T04:21:40.984Z,17.65
2022-09-07T04:24:07.531Z,17.81
2022-09-07T04:26:35.693Z,17.93
2022-09-07T04:29:03.006Z,18.07
2022-09-07T04:31:30.128Z,18.22
2022-09-07T04:33:56.684Z,18.38
2022-09-07T04:36:24.846Z,18.48
2022-09-07T04:38:56.742Z,18.55
2022-09-07T04:41:23.516Z,18.61
2022-09-07T04:43:53.428Z,18.66
2022-09-07T04:46:22.850Z,18.69
2022-09-07T04:48:55.214Z,18.74
2022-09-07T04:51:23.240Z,18.80
2022-09-07T04:53:51.673Z,18.82
2022-09-07T04:56:19.324Z,18.86
2022-09-07T04:58:46.835Z,18.89
2022-09-07T05:01:19.362Z,18.89
2022-09-07T05:03:46.768Z,18.90
2022-09-07T05:06:14.323Z,18.86
2022-09-07T05:08:49.604Z,18.86
2022-09-07T05:11:16.960Z,18.78
2022-09-07T05:13:43.933Z,18.88
2022-09-07T05:16:14.093Z,18.86
2022-09-07T05:18:41.016Z,18.85
2022-09-07T05:21:22.168Z,18.93
2022-09-07T05:23:51.168Z,18.99
2022-09-07T05:26:18.931Z,19.06
2022-09-07T05:28:45.646Z,19.17
2022-09-07T05:31:19.647Z,19.26
2022-09-07T05:36:39.257Z,19.34
2022-09-07T05:39:07.019Z,19.31
2022-09-07T05:41:33.846Z,19.37
2022-09-07T05:46:46.924Z,19.42
2022-09-07T05:49:13.441Z,19.42
2022-09-07T05:51:40.128Z,19.42
2022-09-07T05:54:06.964Z,19.39
2022-09-07T05:56:36.595Z,19.37
2022-09-07T05:59:03.739Z,19.35
2022-09-07T06:01:30.816Z,19.36
2022-09-07T06:03:57.890Z,19.34
2022-09-07T06:06:24.419Z,19.36
2022-09-07T06:08:53.012Z,19.39
2022-09-07T06:11:22.237Z,19.37
2022-09-07T06:13:49.506Z,19.36
2022-09-07T06:16:18.335Z,19.40
2022-09-07T06:18:47.445Z,19.43
2022-09-07T06:21:19.773Z,19.48
2022-09-07T06:23:47.330Z,19.44
2022-09-07T06:26:14.985Z,19.36
2022-09-07T06:28:43.715Z,19.40
2022-09-07T06:31:16.246Z,19.50
2022-09-07T06:33:50.454Z,19.60
2022-09-07T06:36:20.946Z,19.65
2022-09-07T06:38:48.628Z,19.74
2022-09-07T06:44:12.297Z,20.05
2022-09-07T06:49:26.115Z,20.22
2022-09-07T06:51:52.667Z,20.25
2022-09-07T06:57:09.074Z,20.27
2022-09-07T06:59:36.658Z,20.23
2022-09-07T07:02:03.714Z,20.16
2022-09-07T07:04:30.274Z,20.09
2022-09-07T07:06:56.870Z,20.07
2022-09-07T07:09:23.429Z,20.10
2022-09-07T07:11:50.264Z,20.05
2022-09-07T07:14:18.004Z,20.01
2022-09-07T07:16:44.807Z,19.89
2022-09-07T07:19:11.570Z,19.79
2022-09-07T07:22:03.477Z,19.79
2022-09-07T07:24:24.638Z,19.72
2022-09-07T07:26:51.234Z,19.60
2022-09-07T07:29:18.871Z,19.48
2022-09-07T07:31:47.063Z,19.35
2022-09-07T07:34:14.005Z,19.36
2022-09-07T07:36:40.626Z,19.35
2022-09-07T07:39:07.173Z,19.32
2022-09-07T07:44:20.933Z,19.14
2022-09-07T07:46:49.393Z,19.06
2022-09-07T07:49:16.081Z,18.84
2022-09-07T07:54:29.323Z,18.97
2022-09-07T07:56:55.844Z,18.92
2022-09-07T07:59:22.330Z,18.82
2022-09-07T08:01:49.238Z,18.86
2022-09-07T08:04:15.829Z,18.90
2022-09-07T08:06:42.606Z,18.94
2022-09-07T08:09:09.375Z,18.96
2022-09-07T08:11:35.855Z,18.98
2022-09-07T08:14:05.895Z,18.99
2022-09-07T08:16:34.127Z,19.00
2022-09-07T08:19:01.645Z,19.03
2022-09-07T08:21:28.227Z,19.08
2022-09-07T08:23:55.760Z,19.14
2022-09-07T08:26:22.711Z,19.23
2022-09-07T08:28:49.402Z,19.52
2022-09-07T08:31:17.118Z,19.73
2022-09-07T08:33:43.968Z,20.15
2022-09-07T08:36:19.160Z,20.69
2022-09-07T08:38:46.058Z,21.09
2022-09-07T08:41:30.683Z,21.26
2022-09-07T08:44:10.794Z,21.18
2022-09-07T08:47:21.874Z,21.16
2022-09-07T08:49:56.236Z,21.17
2022-09-07T08:52:26.377Z,21.36
2022-09-07T08:55:03.947Z,21.65
2022-09-07T08:57:35.391Z,21.64
2022-09-07T09:00:07.700Z,21.45
2022-09-07T09:02:42.437Z,21.53
2022-09-07T09:05:41.235Z,21.36
2022-09-07T09:08:29.040Z,21.21
2022-09-07T09:11:05.965Z,21.18
2022-09-07T09:13:55.092Z,21.38
2022-09-07T09:16:44.287Z,21.53
2022-09-07T09:19:25.775Z,21.51
2022-09-07T09:22:08.521Z,21.89
2022-09-07T09:24:38.496Z,22.17
2022-09-07T09:27:05.144Z,22.57
2022-09-07T09:29:34.015Z,22.90
2022-09-07T09:32:20.524Z,22.92
2022-09-07T09:35:06.383Z,22.83
2022-09-07T09:37:37.351Z,22.27
2022-09-07T09:40:06.693Z,22.35
2022-09-07T09:42:35.366Z,22.68
2022-09-07T09:45:06.127Z,22.79
2022-09-07T09:47:36.083Z,22.36
2022-09-07T09:52:29.175Z,22.17
2022-09-07T09:53:06.130Z,22.55
2022-09-07T09:55:36.480Z,22.91
2022-09-07T10:01:27.094Z,23.81
2022-09-07T10:06:25.292Z,23.97
2022-09-07T10:08:58.031Z,23.81
2022-09-07T10:12:11.099Z,23.76
2022-09-07T10:14:46.756Z,23.77
2022-09-07T10:17:31.958Z,23.75
2022-09-07T10:20:16.036Z,24.06
2022-09-07T10:22:50.906Z,24.34
2022-09-07T10:25:37.819Z,24.56
2022-09-07T10:28:04.347Z,24.35
2022-09-07T10:30:41.941Z,24.21
2022-09-07T10:33:20.774Z,24.11
2022-09-07T10:36:03.103Z,24.06
2022-09-07T10:38:36.675Z,24.13
2022-09-07T10:41:07.481Z,24.13
2022-09-07T10:43:45.664Z,24.64
2022-09-07T10:46:58.237Z,24.35
2022-09-07T10:49:25.228Z,23.84
2022-09-07T10:52:13.916Z,23.75
2022-09-07T10:54:47.437Z,23.55
2022-09-07T10:57:39.340Z,23.44
2022-09-07T11:00:12.514Z,23.43
2022-09-07T11:03:25.348Z,23.42
2022-09-07T11:05:54.882Z,23.51
2022-09-07T11:08:24.344Z,23.71
2022-09-07T11:11:02.098Z,23.67
2022-09-07T11:13:49.482Z,24.14
2022-09-07T11:19:52.551Z,25.05
2022-09-07T11:22:28.065Z,25.45
2022-09-07T11:25:31.064Z,25.40
2022-09-07T11:28:23.209Z,25.37
2022-09-07T11:31:00.238Z,24.82
2022-09-07T11:37:09.299Z,24.26
2022-09-07T11:39:45.026Z,24.71
2022-09-07T11:45:30.295Z,25.71
2022-09-07T11:48:19.511Z,25.59
2022-09-07T11:50:52.007Z,25.48
2022-09-07T11:53:22.632Z,25.81
2022-09-07T11:55:56.329Z,25.80
2022-09-07T11:59:00.477Z,25.90
2022-09-07T12:01:57.957Z,25.85
2022-09-07T12:04:40.444Z,25.77
2022-09-07T12:07:17.539Z,25.82
2022-09-07T12:09:58.165Z,25.25
2022-09-07T12:12:43.648Z,25.01
2022-09-07T12:15:32.777Z,25.46
2022-09-07T12:18:04.385Z,25.75
2022-09-07T12:20:44.442Z,25.80
2022-09-07T12:23:16.953Z,25.76
2022-09-07T12:25:45.717Z,25.67
2022-09-07T12:28:21.880Z,25.37
2022-09-07T12:30:55.746Z,25.36
2022-09-07T12:33:28.373Z,25.54
2022-09-07T12:35:57.942Z,25.23
2022-09-07T12:38:30.253Z,24.97
2022-09-07T12:41:20.259Z,25.28
2022-09-07T12:44:04.425Z,25.63
2022-09-07T12:46:34.692Z,25.64
2022-09-07T12:49:01.689Z,25.53
2022-09-07T12:54:38.218Z,25.30
2022-09-07T12:57:41.167Z,25.50
2022-09-07T13:00:20.732Z,25.82
2022-09-07T13:02:56.864Z,25.98
2022-09-07T13:06:00.980Z,25.83
2022-09-07T13:08:39.623Z,25.85
2022-09-07T13:11:27.511Z,25.58
2022-09-07T13:14:04.742Z,25.40
2022-09-07T13:17:16.038Z,25.21
2022-09-07T13:19:46.454Z,25.18
2022-09-07T13:22:31.280Z,25.45
2022-09-07T13:25:21.083Z,25.70
2022-09-07T13:28:03.060Z,25.79
2022-09-07T13:30:38.437Z,25.77
2022-09-07T13:33:34.536Z,25.79
2022-09-07T13:36:03.523Z,25.56
2022-09-07T13:38:32.933Z,25.37
2022-09-07T13:41:17.719Z,25.17
2022-09-07T13:43:49.310Z,25.01
2022-09-07T13:46:49.052Z,24.78
2022-09-07T13:49:37.080Z,24.59
2022-09-07T13:52:18.112Z,24.54
2022-09-07T13:55:31.662Z,24.48
2022-09-07T13:58:11.643Z,24.42
2022-09-07T14:00:54.111Z,24.38
2022-09-07T14:03:22.531Z,24.38
2022-09-07T14:05:49.070Z,24.42
2022-09-07T14:08:29.601Z,24.24
2022-09-07T14:10:56.086Z,24.11
2022-09-07T14:13:22.607Z,24.06
2022-09-07T14:15:50.395Z,24.06
2022-09-07T14:18:30.250Z,24.09
2022-09-07T14:20:59.275Z,24.10
2022-09-07T14:23:32.773Z,24.24
2022-09-07T14:26:19.267Z,24.31
2022-09-07T14:29:03.778Z,24.34
2022-09-07T14:31:31.254Z,24.35
2022-09-07T14:34:00.357Z,24.44
2022-09-07T14:36:45.318Z,24.59
2022-09-07T14:39:15.183Z,24.76
2022-09-07T14:41:43.208Z,24.87
2022-09-07T14:44:33.631Z,24.94
2022-09-07T14:47:20.472Z,25.01
2022-09-07T14:49:55.944Z,25.06
2022-09-07T14:52:36.711Z,25.08
2022-09-07T14:55:19.277Z,25.10
2022-09-07T14:57:45.842Z,25.12
2022-09-07T15:00:20.950Z,25.00
2022-09-07T15:02:47.468Z,24.82
2022-09-07T15:05:20.589Z,24.71
2022-09-07T15:07:59.510Z,24.71
2022-09-07T15:10:28.334Z,24.66
2022-09-07T15:12:57.600Z,24.66
2022-09-07T15:15:33.875Z,24.58
2022-09-07T15:18:08.541Z,24.51
2022-09-07T15:20:38.641Z,24.50
2022-09-07T15:23:12.611Z,24.51
2022-09-07T15:25:40.726Z,24.55
2022-09-07T15:28:07.853Z,24.56
2022-09-07T15:30:34.820Z,24.57
2022-09-07T15:33:01.481Z,24.56
2022-09-07T15:35:28.019Z,24.55
2022-09-07T15:38:02.872Z,24.56
2022-09-07T15:40:56.225Z,24.56
2022-09-07T15:43:28.563Z,24.60
2022-09-07T15:45:55.340Z,24.64
2022-09-07T15:48:25.317Z,24.68
2022-09-07T15:50:59.813Z,24.71
2022-09-07T15:56:13.383Z,24.70
2022-09-07T15:58:40.113Z,24.61
2022-09-07T16:03:54.571Z,24.32
2022-09-07T16:06:22.466Z,24.19
2022-09-07T16:08:51.502Z,24.08
2022-09-07T16:11:24.309Z,23.99
2022-09-07T16:14:02.169Z,24.03
2022-09-07T16:19:22.226Z,23.92
2022-09-07T16:21:48.890Z,23.86
2022-09-07T16:24:17.240Z,23.80
2022-09-07T16:26:43.753Z,23.77
2022-09-07T16:29:10.326Z,23.71
2022-09-07T16:31:37.148Z,23.68
2022-09-07T16:34:04.109Z,23.66
2022-09-07T16:36:30.827Z,23.59
2022-09-07T16:38:59.643Z,23.54
2022-09-07T16:41:29.310Z,23.52
2022-09-07T16:43:56.195Z,23.55
2022-09-07T16:46:26.494Z,23.57
2022-09-07T16:48:53.574Z,23.55
2022-09-07T16:51:21.827Z,23.52
2022-09-07T16:53:50.293Z,23.51
2022-09-07T16:56:19.469Z,23.57
2022-09-07T16:58:57.466Z,23.58
2022-09-07T17:01:27.189Z,23.60
2022-09-07T17:03:54.005Z,23.59
2022-09-07T17:06:23.547Z,23.57
2022-09-07T17:08:50.507Z,23.50
2022-09-07T17:11:29.746Z,23.48
2022-09-07T17:13:57.993Z,23.41
2022-09-07T17:16:35.502Z,23.32
2022-09-07T17:21:53.734Z,23.10
2022-09-07T17:24:21.185Z,23.02
2022-09-07T17:26:48.324Z,22.98
2022-09-07T17:29:15.178Z,22.92
2022-09-07T17:34:29.932Z,22.80
2022-09-07T17:36:56.495Z,22.74
2022-09-07T17:39:23.483Z,22.63
2022-09-07T17:41:54.299Z,22.56
2022-09-07T17:44:23.185Z,22.48
2022-09-07T17:46:49.907Z,22.41
2022-09-07T17:49:16.917Z,22.39
2022-09-07T17:51:44.729Z,22.33
2022-09-07T17:54:16.603Z,22.37
2022-09-07T17:56:44.626Z,22.37
2022-09-07T18:01:58.737Z,22.40
2022-09-07T18:04:25.847Z,22.38
2022-09-07T18:06:54.116Z,22.25
2022-09-07T18:09:20.653Z,22.15
2022-09-07T18:11:49.047Z,22.03
2022-09-07T18:14:16.585Z,21.95
2022-09-07T18:16:44.957Z,21.79
2022-09-07T18:19:12.409Z,21.71
2022-09-07T18:21:40.936Z,21.70
2022-09-07T18:24:20.698Z,21.67
2022-09-07T18:26:50.616Z,21.59
2022-09-07T18:29:31.193Z,21.52
2022-09-07T18:32:01.165Z,21.43
2022-09-07T18:34:28.978Z,21.42
2022-09-07T18:36:55.827Z,21.48
2022-09-07T18:39:22.742Z,21.54
2022-09-07T18:41:49.233Z,21.52
2022-09-07T18:47:02.396Z,21.33
2022-09-07T18:49:28.872Z,21.23
2022-09-07T18:54:41.866Z,21.06
2022-09-07T18:57:08.684Z,21.10
2022-09-07T18:59:35.347Z,21.14
2022-09-07T19:02:04.855Z,21.13
2022-09-07T19:07:20.518Z,21.14
2022-09-07T19:09:48.132Z,21.14
2022-09-07T19:12:15.090Z,21.15
2022-09-07T19:14:42.226Z,21.13
2022-09-07T19:17:10.936Z,21.11
2022-09-07T19:19:38.717Z,20.99
2022-09-07T19:22:05.986Z,20.82
2022-09-07T19:24:33.175Z,20.85
2022-09-07T19:27:00.838Z,20.90
2022-09-07T19:29:28.040Z,20.97
2022-09-07T19:32:07.805Z,21.04
2022-09-07T19:34:45.531Z,21.04
2022-09-07T19:37:13.259Z,20.82
2022-09-07T19:39:39.838Z,20.67
2022-09-07T19:42:07.048Z,20.63
2022-09-07T19:44:34.010Z,20.68
2022-09-07T19:47:00.838Z,20.79
2022-09-07T19:49:28.202Z,20.76
2022-09-07T19:51:54.817Z,20.62
2022-09-07T19:54:21.451Z,20.55
2022-09-07T19:56:47.944Z,20.49
2022-09-07T19:59:14.619Z,20.57
2022-09-07T20:01:45.953Z,20.69
2022-09-07T20:04:19.678Z,20.67
2022-09-07T20:06:48.070Z,20.49
2022-09-07T20:09:14.641Z,20.37
2022-09-07T20:11:46.073Z,20.24
2022-09-07T20:14:13.745Z,20.20
2022-09-07T20:16:41.681Z,20.21
2022-09-07T20:19:08.445Z,20.25
2022-09-07T20:21:36.869Z,20.26
2022-09-07T20:24:03.964Z,20.28
2022-09-07T20:26:32.230Z,20.22
2022-09-07T20:29:16.766Z,20.10
2022-09-07T20:31:46.839Z,20.17
2022-09-07T20:34:13.662Z,20.33
2022-09-07T20:36:40.514Z,20.21
2022-09-07T20:39:07.080Z,20.06
2022-09-07T20:41:34.284Z,20.03
2022-09-07T20:44:02.686Z,20.05
2022-09-07T20:46:30.276Z,20.14
2022-09-07T20:48:57.259Z,20.25
2022-09-07T20:51:23.847Z,20.20
2022-09-07T20:53:50.906Z,20.17
2022-09-07T20:56:18.740Z,20.04
2022-09-07T20:58:46.646Z,19.87
2022-09-07T21:01:15.704Z,19.84
2022-09-07T21:03:54.244Z,19.77
2022-09-07T21:06:22.453Z,19.84
2022-09-07T21:08:49.886Z,19.95
2022-09-07T21:11:22.848Z,20.01
2022-09-07T21:13:59.260Z,20.01
2022-09-07T21:16:26.211Z,19.79
2022-09-07T21:18:55.268Z,19.86
2022-09-07T21:21:23.191Z,20.03
2022-09-07T21:23:55.715Z,20.00
2022-09-07T21:26:23.143Z,20.01
2022-09-07T21:29:01.541Z,20.09
2022-09-07T21:31:29.861Z,20.14
2022-09-07T21:33:58.693Z,20.04
2022-09-07T21:36:25.985Z,20.04
2022-09-07T21:38:53.046Z,20.07
2022-09-07T21:41:21.260Z,20.11
2022-09-07T21:43:47.727Z,20.18
2022-09-07T21:46:17.414Z,20.10
2022-09-07T21:48:45.557Z,20.10
2022-09-07T21:51:13.608Z,20.17
2022-09-07T21:53:40.722Z,20.19
2022-09-07T21:56:11.146Z,20.20
2022-09-07T21:58:38.503Z,20.06
2022-09-07T22:01:12.504Z,19.97
2022-09-07T22:03:40.384Z,19.99
2022-09-07T22:06:08.317Z,19.90
2022-09-07T22:08:36.304Z,19.71
2022-09-07T22:11:09.366Z,19.61
2022-09-07T22:13:36.537Z,19.53
2022-09-07T22:16:04.461Z,19.41
2022-09-07T22:18:31.569Z,19.37
2022-09-07T22:21:12.774Z,19.33
2022-09-07T22:23:42.641Z,19.22
2022-09-07T22:26:09.758Z,19.11
2022-09-07T22:28:37.087Z,18.88
2022-09-07T22:31:12.454Z,18.69
2022-09-07T22:33:40.007Z,18.71
2022-09-07T22:36:11.413Z,18.77
2022-09-07T22:38:38.745Z,18.80
2022-09-07T22:41:10.468Z,18.70
2022-09-07T22:43:37.005Z,18.62
2022-09-07T22:46:03.986Z,18.54
2022-09-07T22:48:30.643Z,18.53
2022-09-07T22:50:58.941Z,18.52
2022-09-07T22:53:30.351Z,18.57
2022-09-07T22:55:57.246Z,18.70
2022-09-07T22:58:23.893Z,18.74
2022-09-07T23:00:51.466Z,18.87
2022-09-07T23:03:18.521Z,18.85
2022-09-07T23:05:45.000Z,18.82
2022-09-07T23:08:11.877Z,18.68
2022-09-07T23:10:39.084Z,18.60
2022-09-07T23:13:05.929Z,18.59
2022-09-07T23:15:35.937Z,18.68
2022-09-07T23:18:02.383Z,18.82
2022-09-07T23:20:28.961Z,18.92
2022-09-07T23:22:55.443Z,18.96
2022-09-07T23:25:22.658Z,18.92
2022-09-07T23:27:49.117Z,18.94
2022-09-07T23:30:15.658Z,18.95
2022-09-07T23:32:42.272Z,18.92
2022-09-07T23:35:11.690Z,18.90
2022-09-07T23:37:40.173Z,18.56
2022-09-07T23:40:08.560Z,18.60
2022-09-07T23:42:35.094Z,18.50
2022-09-07T23:45:01.549Z,18.28
2022-09-07T23:47:28.054Z,18.14
2022-09-07T23:49:54.582Z,18.29
2022-09-07T23:52:21.075Z,18.40
2022-09-07T23:54:47.561Z,18.34
2022-09-07T23:57:14.103Z,18.46
2022-09-07T23:59:40.596Z,18.52
